createdAt,value
2019-05-11T00:00:12.658Z,9.15
2019-05-11T00:02:43.573Z,9.11
2019-05-11T00:05:23.387Z,9.04
2019-05-11T00:07:53.125Z,9.06
2019-05-11T00:10:23.829Z,9.07
2019-05-11T00:12:55.348Z,9.04
2019-05-11T00:15:39.024Z,9.04
2019-05-11T00:18:08.733Z,9.05
2019-05-11T00:20:52.647Z,9.03
2019-05-11T00:23:39.200Z,8.99
2019-05-11T00:26:10.663Z,8.93
2019-05-11T00:28:40.462Z,8.85
2019-05-11T00:31:16.843Z,8.84
2019-05-11T00:33:55.000Z,8.82
2019-05-11T00:36:29.023Z,8.83
2019-05-11T00:38:59.523Z,8.78
2019-05-11T00:41:33.219Z,8.69
2019-05-11T00:44:11.185Z,8.67
2019-05-11T00:46:42.150Z,8.65
2019-05-11T00:49:13.557Z,8.61
2019-05-11T00:51:43.038Z,8.60
2019-05-11T00:54:31.052Z,8.59
2019-05-11T00:57:00.521Z,8.49
2019-05-11T00:59:29.997Z,8.39
2019-05-11T01:02:08.701Z,8.41
2019-05-11T01:04:38.207Z,8.42
2019-05-11T01:07:10.801Z,8.41
2019-05-11T01:09:43.176Z,8.42
2019-05-11T01:12:12.841Z,8.41
2019-05-11T01:14:42.349Z,8.41
2019-05-11T01:17:14.571Z,8.41
2019-05-11T01:19:43.987Z,8.36
2019-05-11T01:22:14.657Z,8.27
2019-05-11T01:24:56.061Z,8.22
2019-05-11T01:27:27.523Z,8.21
2019-05-11T01:30:01.495Z,8.23
2019-05-11T01:32:30.879Z,8.19
2019-05-11T01:35:03.335Z,8.18
2019-05-11T01:37:33.222Z,8.16
2019-05-11T01:40:20.547Z,8.15
2019-05-11T01:43:11.001Z,8.12
2019-05-11T01:45:40.507Z,8.11
2019-05-11T01:48:12.406Z,8.11
2019-05-11T01:50:42.046Z,8.09
2019-05-11T01:53:12.560Z,7.98
2019-05-11T01:55:42.073Z,8.00
2019-05-11T01:58:23.346Z,7.94
2019-05-11T02:00:58.844Z,7.98
2019-05-11T02:03:32.617Z,7.98
2019-05-11T02:06:03.179Z,8.00
2019-05-11T02:08:32.740Z,7.95
2019-05-11T02:11:15.358Z,7.94
2019-05-11T02:13:52.841Z,7.89
2019-05-11T02:16:29.997Z,7.89
2019-05-11T02:18:59.488Z,7.86
2019-05-11T02:21:31.472Z,7.81
2019-05-11T02:24:01.420Z,7.79
2019-05-11T02:26:32.877Z,7.78
2019-05-11T02:29:22.778Z,7.80
2019-05-11T02:32:13.134Z,7.81
2019-05-11T02:34:44.648Z,7.86
2019-05-11T02:37:22.760Z,7.82
2019-05-11T02:39:52.824Z,7.89
2019-05-11T02:42:28.164Z,7.98
2019-05-11T02:45:34.750Z,8.10
2019-05-11T02:48:04.170Z,8.08
2019-05-11T02:50:37.876Z,8.09
2019-05-11T02:53:08.271Z,8.12
2019-05-11T02:55:39.186Z,8.19
2019-05-11T02:58:12.747Z,8.31
2019-05-11T03:00:43.953Z,8.33
2019-05-11T03:03:15.365Z,8.33
2019-05-11T03:05:53.338Z,8.36
2019-05-11T03:08:29.911Z,8.35
2019-05-11T03:11:00.801Z,8.26
2019-05-11T03:13:34.582Z,8.17
2019-05-11T03:16:05.974Z,8.22
2019-05-11T03:18:36.546Z,8.24
2019-05-11T03:21:07.750Z,8.25
2019-05-11T03:23:40.583Z,8.27
2019-05-11T03:26:11.132Z,8.22
2019-05-11T03:28:44.409Z,8.18
2019-05-11T03:31:17.610Z,8.13
2019-05-11T03:33:47.203Z,8.08
2019-05-11T03:36:18.618Z,8.02
2019-05-11T03:39:07.461Z,7.97
2019-05-11T03:41:46.812Z,7.92
2019-05-11T03:44:24.510Z,7.85
2019-05-11T03:46:54.973Z,7.79
2019-05-11T03:49:24.526Z,7.80
2019-05-11T03:51:55.940Z,7.77
2019-05-11T03:54:25.645Z,7.64
2019-05-11T03:57:01.431Z,7.65
2019-05-11T03:59:39.814Z,7.67
2019-05-11T04:02:15.220Z,7.68
2019-05-11T04:04:46.456Z,7.73
2019-05-11T04:07:18.677Z,7.81
2019-05-11T04:09:53.146Z,7.82
2019-05-11T04:12:34.696Z,7.91
2019-05-11T04:15:12.959Z,8.02
2019-05-11T04:17:42.462Z,8.12
2019-05-11T04:20:15.073Z,8.14
2019-05-11T04:22:59.053Z,8.18
2019-05-11T04:25:29.868Z,8.27
2019-05-11T04:28:06.422Z,8.30
2019-05-11T04:30:38.702Z,8.39
2019-05-11T04:33:11.975Z,8.38
2019-05-11T04:35:43.382Z,8.47
2019-05-11T04:38:28.592Z,8.56
2019-05-11T04:41:01.091Z,8.67
2019-05-11T04:43:39.182Z,8.68
2019-05-11T04:46:16.886Z,8.60
2019-05-11T04:48:46.416Z,8.65
2019-05-11T04:51:15.921Z,8.72
2019-05-11T04:53:45.556Z,8.71
2019-05-11T04:56:16.865Z,8.75
2019-05-11T04:58:48.829Z,8.81
2019-05-11T05:01:18.739Z,8.81
2019-05-11T05:03:54.239Z,8.79
2019-05-11T05:06:24.545Z,8.75
2019-05-11T05:08:58.299Z,8.79
2019-05-11T05:11:30.741Z,8.91
2019-05-11T05:14:01.886Z,8.87
2019-05-11T05:16:31.678Z,8.84
2019-05-11T05:21:48.945Z,9.05
2019-05-11T05:24:19.702Z,9.21
2019-05-11T05:26:52.574Z,9.39
2019-05-11T05:29:22.164Z,9.57
2019-05-11T05:31:54.178Z,9.65
2019-05-11T05:34:23.666Z,9.78
2019-05-11T05:36:55.194Z,9.88
2019-05-11T05:39:24.823Z,9.93
2019-05-11T05:41:57.294Z,10.10
2019-05-11T05:45:07.172Z,10.27
2019-05-11T05:47:57.037Z,10.29
2019-05-11T05:50:31.411Z,10.38
2019-05-11T05:53:02.091Z,10.39
2019-05-11T05:55:33.207Z,10.29
2019-05-11T05:58:04.411Z,10.42
2019-05-11T06:00:34.973Z,10.52
2019-05-11T06:03:06.208Z,10.63
2019-05-11T06:09:08.331Z,10.97
2019-05-11T06:11:37.748Z,10.98
2019-05-11T06:14:07.675Z,10.91
2019-05-11T06:16:40.442Z,11.04
2019-05-11T06:19:12.355Z,11.04
2019-05-11T06:21:42.027Z,10.96
2019-05-11T06:24:11.853Z,11.03
2019-05-11T06:26:41.873Z,11.16
2019-05-11T06:29:21.269Z,11.19
2019-05-11T06:31:48.496Z,11.12
2019-05-11T06:34:19.300Z,11.45
2019-05-11T06:36:50.547Z,11.53
2019-05-11T06:39:21.727Z,11.61
2019-05-11T06:41:52.880Z,12.25
2019-05-11T06:44:22.365Z,13.60
2019-05-11T06:46:55.518Z,14.17
2019-05-11T06:49:25.130Z,14.58
2019-05-11T06:51:54.725Z,14.72
2019-05-11T06:54:25.648Z,14.97
2019-05-11T06:56:55.030Z,15.92
2019-05-11T06:59:24.454Z,16.18
2019-05-11T07:01:56.458Z,16.20
2019-05-11T07:04:27.056Z,15.84
2019-05-11T07:06:56.477Z,16.52
2019-05-11T07:09:28.235Z,17.12
2019-05-11T07:11:57.815Z,17.91
2019-05-11T07:14:29.172Z,18.85
2019-05-11T07:16:58.725Z,19.21
2019-05-11T07:19:29.955Z,20.02
2019-05-11T07:21:59.473Z,20.59
2019-05-11T07:24:30.991Z,20.87
2019-05-11T07:27:00.499Z,21.45
2019-05-11T07:29:30.003Z,20.29
2019-05-11T07:32:06.235Z,20.80
2019-05-11T07:34:31.811Z,20.61
2019-05-11T07:37:01.693Z,20.97
2019-05-11T07:39:31.232Z,20.78
2019-05-11T07:42:00.843Z,19.73
2019-05-11T07:44:37.828Z,20.89
2019-05-11T07:47:04.358Z,21.61
2019-05-11T07:49:38.201Z,23.38
2019-05-11T07:52:10.739Z,23.23
2019-05-11T07:54:40.247Z,21.85
2019-05-11T07:57:09.933Z,22.01
2019-05-11T07:59:40.944Z,22.13
2019-05-11T08:02:10.722Z,22.37
2019-05-11T08:04:40.210Z,21.81
2019-05-11T08:07:11.125Z,22.19
2019-05-11T08:09:42.415Z,22.77
2019-05-11T08:12:11.856Z,22.74
2019-05-11T08:14:56.453Z,23.02
2019-05-11T08:17:12.675Z,22.93
2019-05-11T08:19:42.192Z,24.41
2019-05-11T08:22:13.260Z,24.69
2019-05-11T08:24:42.913Z,24.92
2019-05-11T08:27:14.500Z,25.02
2019-05-11T08:29:48.570Z,24.40
2019-05-11T08:32:19.304Z,24.71
2019-05-11T08:34:49.149Z,24.33
2019-05-11T08:37:19.010Z,24.61
2019-05-11T08:39:49.073Z,25.37
2019-05-11T08:42:19.718Z,24.69
2019-05-11T08:44:49.360Z,24.81
2019-05-11T08:47:21.924Z,23.57
2019-05-11T08:49:52.659Z,24.78
2019-05-11T08:52:22.089Z,24.25
2019-05-11T08:54:51.974Z,24.73
2019-05-11T08:57:23.103Z,24.93
2019-05-11T08:59:55.079Z,25.16
2019-05-11T09:02:27.799Z,24.88
2019-05-11T09:04:58.877Z,23.68
2019-05-11T09:07:28.569Z,24.41
2019-05-11T09:09:58.702Z,25.95
2019-05-11T09:12:31.054Z,25.77
2019-05-11T09:15:00.666Z,25.35
2019-05-11T09:17:32.299Z,26.64
2019-05-11T09:20:01.699Z,25.93
2019-05-11T09:22:31.104Z,25.83
2019-05-11T09:25:00.624Z,25.06
2019-05-11T09:27:31.182Z,26.53
2019-05-11T09:30:00.608Z,26.55
2019-05-11T09:32:30.487Z,26.40
2019-05-11T09:34:59.951Z,25.39
2019-05-11T09:37:29.353Z,24.70
2019-05-11T09:39:58.851Z,24.12
2019-05-11T09:42:31.898Z,23.47
2019-05-11T09:45:01.403Z,22.31
2019-05-11T09:47:31.129Z,20.48
2019-05-11T09:50:00.577Z,19.53
2019-05-11T09:52:32.677Z,19.54
2019-05-11T09:55:04.206Z,19.85
2019-05-11T09:57:37.528Z,20.46
2019-05-11T10:00:08.753Z,20.15
2019-05-11T10:02:39.681Z,19.91
2019-05-11T10:05:12.749Z,19.88
2019-05-11T10:07:42.288Z,19.48
2019-05-11T10:10:13.353Z,18.97
2019-05-11T10:12:43.966Z,18.61
2019-05-11T10:15:15.210Z,18.50
2019-05-11T10:17:48.310Z,18.92
2019-05-11T10:20:20.118Z,19.52
2019-05-11T10:22:51.114Z,19.26
2019-05-11T10:25:23.736Z,18.67
2019-05-11T10:27:53.195Z,18.53
2019-05-11T10:30:23.972Z,18.48
2019-05-11T10:32:53.712Z,18.35
2019-05-11T10:35:24.928Z,18.00
2019-05-11T10:37:54.406Z,18.24
2019-05-11T10:40:28.133Z,18.27
2019-05-11T10:42:58.965Z,18.09
2019-05-11T10:45:29.195Z,17.85
2019-05-11T10:48:01.182Z,17.93
2019-05-11T10:50:30.619Z,17.88
2019-05-11T10:53:01.121Z,18.43
2019-05-11T10:55:30.695Z,18.47
2019-05-11T10:58:03.733Z,18.57
2019-05-11T11:00:34.249Z,18.34
2019-05-11T11:03:05.519Z,18.02
2019-05-11T11:05:34.965Z,17.86
2019-05-11T11:08:04.541Z,17.99
2019-05-11T11:10:34.283Z,17.11
2019-05-11T11:13:03.919Z,17.11
2019-05-11T11:15:33.761Z,16.74
2019-05-11T11:18:05.415Z,16.69
2019-05-11T11:20:38.442Z,16.60
2019-05-11T11:23:08.833Z,16.92
2019-05-11T11:25:39.654Z,17.17
2019-05-11T11:28:09.068Z,17.06
2019-05-11T11:30:38.418Z,16.95
2019-05-11T11:33:08.109Z,16.89
2019-05-11T11:35:38.507Z,16.43
2019-05-11T11:38:08.685Z,16.56
2019-05-11T11:40:38.826Z,16.48
2019-05-11T11:43:09.639Z,16.59
2019-05-11T11:45:40.349Z,16.90
2019-05-11T11:48:13.639Z,17.15
2019-05-11T11:50:43.532Z,17.40
2019-05-11T11:53:13.949Z,17.40
2019-05-11T11:55:43.407Z,17.55
2019-05-11T11:58:12.876Z,17.36
2019-05-11T12:00:42.421Z,17.20
2019-05-11T12:03:13.668Z,16.79
2019-05-11T12:05:44.889Z,16.97
2019-05-11T12:08:14.428Z,16.91
2019-05-11T12:10:48.301Z,16.91
2019-05-11T12:13:20.503Z,16.82
2019-05-11T12:15:50.135Z,16.58
2019-05-11T12:18:19.947Z,16.98
2019-05-11T12:20:49.386Z,17.01
2019-05-11T12:23:18.891Z,17.03
2019-05-11T12:25:49.452Z,17.07
2019-05-11T12:28:20.664Z,17.00
2019-05-11T12:30:50.149Z,17.01
2019-05-11T12:33:21.206Z,16.83
2019-05-11T12:35:50.640Z,16.88
2019-05-11T12:38:23.314Z,16.72
2019-05-11T12:40:52.903Z,16.57
2019-05-11T12:43:23.412Z,16.86
2019-05-11T12:45:53.015Z,17.07
2019-05-11T12:48:22.663Z,17.21
2019-05-11T12:50:53.853Z,16.97
2019-05-11T12:53:23.377Z,16.89
2019-05-11T12:55:52.838Z,16.87
2019-05-11T12:58:22.261Z,16.90
2019-05-11T13:00:52.154Z,16.95
2019-05-11T13:03:22.252Z,17.14
2019-05-11T13:05:52.215Z,17.25
2019-05-11T13:08:24.127Z,17.15
2019-05-11T13:10:55.138Z,17.22
2019-05-11T13:13:24.555Z,17.31
2019-05-11T13:15:55.103Z,17.12
2019-05-11T13:18:24.667Z,17.07
2019-05-11T13:20:55.382Z,17.15
2019-05-11T13:23:25.069Z,16.91
2019-05-11T13:25:54.881Z,16.93
2019-05-11T13:28:24.499Z,16.83
2019-05-11T13:30:53.910Z,16.77
2019-05-11T13:33:23.382Z,16.88
2019-05-11T13:35:52.840Z,16.89
2019-05-11T13:38:22.272Z,16.84
2019-05-11T13:40:52.344Z,17.12
2019-05-11T13:43:22.399Z,17.29
2019-05-11T13:45:52.493Z,17.41
2019-05-11T13:48:23.640Z,17.38
2019-05-11T13:50:53.065Z,17.44
2019-05-11T13:53:24.293Z,17.52
2019-05-11T13:55:53.880Z,17.50
2019-05-11T13:58:27.626Z,17.57
2019-05-11T14:00:58.516Z,17.37
2019-05-11T14:03:28.469Z,17.33
2019-05-11T14:05:58.999Z,17.13
2019-05-11T14:08:30.241Z,17.07
2019-05-11T14:11:01.806Z,17.19
2019-05-11T14:13:31.443Z,16.92
2019-05-11T14:16:00.930Z,17.02
2019-05-11T14:18:30.796Z,17.23
2019-05-11T14:21:00.244Z,17.23
2019-05-11T14:23:31.564Z,17.43
2019-05-11T14:26:01.398Z,17.45
2019-05-11T14:28:30.882Z,17.28
2019-05-11T14:31:00.363Z,17.50
2019-05-11T14:33:29.835Z,17.54
2019-05-11T14:35:59.301Z,17.69
2019-05-11T14:38:29.047Z,17.85
2019-05-11T14:40:58.923Z,17.80
2019-05-11T14:43:28.342Z,17.93
2019-05-11T14:45:59.024Z,18.03
2019-05-11T14:48:30.240Z,18.15
2019-05-11T14:50:59.826Z,17.89
2019-05-11T14:53:29.261Z,17.71
2019-05-11T14:55:58.719Z,17.36
2019-05-11T14:58:28.174Z,17.24
2019-05-11T15:00:58.348Z,17.12
2019-05-11T15:03:28.876Z,17.02
2019-05-11T15:05:58.403Z,17.17
2019-05-11T15:08:28.622Z,16.99
2019-05-11T15:10:58.308Z,17.14
2019-05-11T15:13:28.782Z,17.05
2019-05-11T15:15:58.721Z,16.94
2019-05-11T15:18:37.916Z,16.92
2019-05-11T15:20:59.397Z,16.95
2019-05-11T15:23:28.806Z,16.91
2019-05-11T15:25:58.789Z,16.81
2019-05-11T15:28:28.591Z,16.88
2019-05-11T15:30:58.763Z,16.86
2019-05-11T15:33:28.610Z,16.83
2019-05-11T15:35:58.406Z,17.04
2019-05-11T15:38:28.533Z,16.97
2019-05-11T15:41:00.837Z,16.97
2019-05-11T15:43:31.283Z,16.79
2019-05-11T15:46:00.807Z,16.70
2019-05-11T15:48:30.379Z,16.62
2019-05-11T15:50:59.785Z,16.64
2019-05-11T15:53:29.200Z,16.73
2019-05-11T15:55:59.859Z,16.78
2019-05-11T15:58:29.512Z,16.81
2019-05-11T16:00:58.994Z,16.81
2019-05-11T16:03:28.638Z,16.66
2019-05-11T16:05:58.360Z,16.57
2019-05-11T16:08:28.334Z,16.51
2019-05-11T16:10:57.949Z,16.54
2019-05-11T16:13:28.514Z,16.53
2019-05-11T16:15:59.138Z,16.47
2019-05-11T16:18:28.687Z,16.58
2019-05-11T16:20:58.377Z,16.57
2019-05-11T16:23:28.370Z,16.46
2019-05-11T16:25:58.241Z,16.49
2019-05-11T16:28:30.660Z,16.49
2019-05-11T16:30:58.912Z,16.43
2019-05-11T16:33:28.459Z,16.44
2019-05-11T16:36:00.751Z,16.46
2019-05-11T16:38:29.149Z,16.45
2019-05-11T16:40:58.923Z,16.45
2019-05-11T16:43:28.324Z,16.33
2019-05-11T16:45:58.034Z,16.33
2019-05-11T16:48:27.761Z,16.35
2019-05-11T16:50:57.980Z,16.39
2019-05-11T16:53:28.478Z,16.40
2019-05-11T16:55:58.166Z,16.35
2019-05-11T16:58:27.955Z,16.38
2019-05-11T17:00:58.210Z,16.38
2019-05-11T17:03:28.120Z,16.40
2019-05-11T17:05:58.864Z,16.46
2019-05-11T17:08:28.707Z,16.41
2019-05-11T17:10:59.435Z,16.22
2019-05-11T17:13:29.121Z,16.21
2019-05-11T17:15:58.563Z,16.16
2019-05-11T17:18:28.563Z,16.10
2019-05-11T17:20:58.653Z,16.00
2019-05-11T17:23:30.770Z,15.97
2019-05-11T17:25:59.334Z,15.88
2019-05-11T17:28:28.734Z,15.83
2019-05-11T17:30:59.787Z,15.90
2019-05-11T17:33:29.306Z,15.93
2019-05-11T17:35:58.852Z,15.88
2019-05-11T17:38:28.318Z,15.86
2019-05-11T17:40:57.999Z,15.85
2019-05-11T17:43:28.049Z,15.84
2019-05-11T17:45:58.454Z,15.86
2019-05-11T17:48:28.424Z,15.72
2019-05-11T17:50:58.202Z,15.64
2019-05-11T17:53:28.628Z,15.60
2019-05-11T17:55:59.073Z,15.61
2019-05-11T17:58:28.490Z,15.55
2019-05-11T18:00:58.992Z,15.56
2019-05-11T18:03:28.634Z,15.49
2019-05-11T18:05:58.864Z,15.49
2019-05-11T18:08:30.839Z,15.41
2019-05-11T18:11:00.497Z,15.38
2019-05-11T18:13:29.900Z,15.31
2019-05-11T18:15:59.326Z,15.29
2019-05-11T18:18:29.284Z,15.33
2019-05-11T18:20:58.793Z,15.30
2019-05-11T18:23:28.470Z,15.23
2019-05-11T18:25:58.034Z,15.29
2019-05-11T18:28:29.034Z,15.26
2019-05-11T18:31:00.193Z,15.31
2019-05-11T18:33:29.875Z,15.25
2019-05-11T18:35:59.257Z,15.24
2019-05-11T18:38:28.649Z,15.23
2019-05-11T18:40:58.302Z,15.17
2019-05-11T18:43:28.167Z,15.14
2019-05-11T18:45:58.427Z,15.13
2019-05-11T18:48:29.040Z,14.97
2019-05-11T18:50:59.164Z,14.96
2019-05-11T18:53:30.531Z,14.89
2019-05-11T18:56:01.884Z,14.92
2019-05-11T18:58:31.292Z,14.81
2019-05-11T19:01:00.660Z,14.77
2019-05-11T19:03:30.114Z,14.70
2019-05-11T19:06:00.511Z,14.55
2019-05-11T19:08:31.068Z,14.45
2019-05-11T19:11:00.676Z,14.39
2019-05-11T19:13:32.001Z,14.43
2019-05-11T19:16:01.644Z,14.29
2019-05-11T19:18:31.251Z,14.15
2019-05-11T19:21:00.676Z,14.07
2019-05-11T19:23:30.031Z,14.01
2019-05-11T19:25:59.620Z,13.93
2019-05-11T19:28:30.106Z,13.84
2019-05-11T19:30:59.527Z,13.79
2019-05-11T19:33:30.200Z,13.65
2019-05-11T19:35:59.602Z,13.60
2019-05-11T19:38:29.033Z,13.54
2019-05-11T19:40:58.998Z,13.41
2019-05-11T19:43:32.730Z,13.45
2019-05-11T19:46:03.243Z,13.38
2019-05-11T19:48:33.234Z,13.28
2019-05-11T19:51:08.108Z,13.24
2019-05-11T19:53:35.828Z,13.19
2019-05-11T19:56:07.813Z,13.09
2019-05-11T19:58:42.218Z,13.04
2019-05-11T20:01:13.461Z,13.00
2019-05-11T20:03:44.002Z,13.01
2019-05-11T20:06:13.464Z,12.89
2019-05-11T20:08:43.162Z,12.85
2019-05-11T20:11:12.944Z,12.75
2019-05-11T20:13:44.214Z,12.71
2019-05-11T20:16:13.796Z,12.70
2019-05-11T20:18:43.241Z,12.55
2019-05-11T20:21:19.184Z,12.53
2019-05-11T20:23:43.808Z,12.58
2019-05-11T20:26:13.276Z,12.60
2019-05-11T20:28:42.656Z,12.46
2019-05-11T20:31:12.057Z,12.40
2019-05-11T20:33:41.890Z,12.33
2019-05-11T20:36:11.330Z,12.29
2019-05-11T20:38:40.733Z,12.23
2019-05-11T20:41:10.201Z,12.08
2019-05-11T20:43:39.621Z,12.09
2019-05-11T20:46:09.030Z,12.06
2019-05-11T20:48:38.551Z,12.01
2019-05-11T20:51:08.204Z,11.99
2019-05-11T20:53:38.711Z,11.85
2019-05-11T20:56:08.732Z,11.89
2019-05-11T20:58:59.567Z,11.80
2019-05-11T21:01:30.938Z,11.60
2019-05-11T21:04:01.341Z,11.63
2019-05-11T21:06:30.919Z,11.62
2019-05-11T21:09:01.581Z,11.61
2019-05-11T21:11:31.233Z,11.53
2019-05-11T21:14:00.647Z,11.53
2019-05-11T21:16:31.306Z,11.41
2019-05-11T21:19:01.857Z,11.34
2019-05-11T21:21:45.193Z,11.39
2019-05-11T21:24:04.890Z,11.33
2019-05-11T21:26:38.417Z,11.19
2019-05-11T21:29:08.721Z,11.13
2019-05-11T21:31:40.813Z,11.08
2019-05-11T21:34:12.599Z,10.94
2019-05-11T21:36:42.009Z,10.93
2019-05-11T21:39:11.685Z,10.95
2019-05-11T21:41:41.096Z,10.94
2019-05-11T21:44:11.542Z,10.91
2019-05-11T21:46:41.251Z,10.83
2019-05-11T21:49:10.760Z,10.72
2019-05-11T21:51:40.474Z,10.59
2019-05-11T21:54:10.031Z,10.60
2019-05-11T21:56:41.043Z,10.65
2019-05-11T21:59:11.549Z,10.67
2019-05-11T22:01:43.610Z,10.56
2019-05-11T22:04:14.776Z,10.51
2019-05-11T22:06:45.295Z,10.49
2019-05-11T22:09:18.583Z,10.47
2019-05-11T22:11:49.765Z,10.39
2019-05-11T22:14:19.291Z,10.38
2019-05-11T22:16:50.964Z,10.32
2019-05-11T22:19:22.360Z,10.29
2019-05-11T22:21:51.765Z,10.29
2019-05-11T22:24:24.620Z,10.24
2019-05-11T22:26:57.492Z,10.27
2019-05-11T22:29:28.703Z,10.25
2019-05-11T22:31:58.625Z,10.20
2019-05-11T22:34:29.847Z,10.13
2019-05-11T22:36:59.398Z,10.06
2019-05-11T22:39:29.296Z,10.10
2019-05-11T22:41:59.009Z,10.05
2019-05-11T22:44:31.270Z,10.00
2019-05-11T22:47:02.303Z,9.99
2019-05-11T22:49:32.992Z,9.93
2019-05-11T22:52:02.519Z,9.85
2019-05-11T22:54:32.339Z,9.87
2019-05-11T22:57:01.858Z,9.77
2019-05-11T22:59:31.474Z,9.65
2019-05-11T23:02:04.376Z,9.69
2019-05-11T23:04:33.869Z,9.58
2019-05-11T23:07:08.030Z,9.50
2019-05-11T23:09:38.298Z,9.46
2019-05-11T23:12:09.173Z,9.41
2019-05-11T23:14:38.772Z,9.37
2019-05-11T23:17:08.503Z,9.37
2019-05-11T23:19:38.262Z,9.44
2019-05-11T23:22:08.369Z,9.40
2019-05-11T23:24:39.034Z,9.31
2019-05-11T23:27:08.958Z,9.28
2019-05-11T23:29:40.320Z,9.21
2019-05-11T23:32:11.582Z,9.22
2019-05-11T23:34:42.300Z,9.11
2019-05-11T23:37:13.258Z,9.15
2019-05-11T23:39:42.743Z,9.07
2019-05-11T23:42:12.225Z,9.10
2019-05-11T23:44:41.734Z,9.06
2019-05-11T23:47:13.432Z,9.03
2019-05-11T23:49:43.867Z,9.04
2019-05-11T23:52:14.363Z,9.04
2019-05-11T23:54:45.456Z,9.00
2019-05-11T23:57:14.896Z,8.96
2019-05-11T23:59:47.765Z,8.95
